createdAt,value
2023-03-17T00:04:35.046Z,-3.64
2023-03-17T00:09:39.548Z,-3.74
2023-03-17T00:14:48.369Z,-3.90
2023-03-17T00:19:50.119Z,-4.03
2023-03-17T00:24:51.969Z,-4.14
2023-03-17T00:29:54.137Z,-4.18
2023-03-17T00:34:56.650Z,-4.14
2023-03-17T00:39:58.420Z,-4.06
2023-03-17T00:45:03.603Z,-4.07
2023-03-17T00:50:18.067Z,-4.15
2023-03-17T00:55:42.460Z,-4.21
2023-03-17T01:00:45.728Z,-4.21
2023-03-17T01:05:49.255Z,-4.20
2023-03-17T01:10:51.020Z,-4.24
2023-03-17T01:15:56.584Z,-4.28
2023-03-17T01:20:58.761Z,-4.22
2023-03-17T01:26:00.684Z,-4.09
2023-03-17T01:31:02.954Z,-3.94
2023-03-17T01:36:05.437Z,-3.86
2023-03-17T01:41:07.260Z,-3.87
2023-03-17T01:46:16.081Z,-3.94
2023-03-17T01:51:24.399Z,-4.07
2023-03-17T01:56:27.083Z,-4.22
2023-03-17T02:01:33.973Z,-4.37
2023-03-17T02:06:42.155Z,-4.50
2023-03-17T02:11:50.768Z,-4.45
2023-03-17T02:16:53.658Z,-4.34
2023-03-17T02:21:59.852Z,-4.18
2023-03-17T02:27:08.370Z,-4.04
2023-03-17T02:32:10.353Z,-3.96
2023-03-17T02:37:12.117Z,-3.96
2023-03-17T02:42:14.567Z,-3.97
2023-03-17T02:47:17.366Z,-3.94
2023-03-17T02:52:19.120Z,-3.87
2023-03-17T02:57:21.522Z,-3.83
2023-03-17T03:02:23.319Z,-3.81
2023-03-17T03:07:25.045Z,-3.83
2023-03-17T03:12:26.747Z,-3.90
2023-03-17T03:17:28.727Z,-4.04
2023-03-17T03:22:30.729Z,-4.19
2023-03-17T03:27:32.689Z,-4.30
2023-03-17T03:32:34.487Z,-4.36
2023-03-17T03:37:36.690Z,-4.34
2023-03-17T03:42:38.369Z,-4.30
2023-03-17T03:47:40.496Z,-4.31
2023-03-17T03:52:42.275Z,-4.40
2023-03-17T03:57:44.252Z,-4.52
2023-03-17T04:02:46.849Z,-4.63
2023-03-17T04:07:48.876Z,-4.74
2023-03-17T04:12:50.685Z,-4.82
2023-03-17T04:17:54.947Z,-4.69
2023-03-17T04:22:56.635Z,-4.46
2023-03-17T04:27:58.374Z,-4.27
2023-03-17T04:33:00.255Z,-4.11
2023-03-17T04:38:02.914Z,-4.02
2023-03-17T04:43:04.650Z,-3.99
2023-03-17T04:48:06.489Z,-4.04
2023-03-17T04:53:09.234Z,-4.15
2023-03-17T04:58:15.437Z,-4.25
2023-03-17T05:03:27.231Z,-4.29
2023-03-17T05:08:31.543Z,-4.30
2023-03-17T05:13:33.278Z,-4.22
2023-03-17T05:18:36.532Z,-4.14
2023-03-17T05:23:38.283Z,-4.09
2023-03-17T05:28:40.053Z,-4.04
2023-03-17T05:33:41.969Z,-3.98
2023-03-17T05:38:44.675Z,-3.87
2023-03-17T05:43:46.950Z,-3.65
2023-03-17T05:48:48.977Z,-3.38
2023-03-17T05:53:51.541Z,-3.08
2023-03-17T05:58:53.271Z,-2.84
2023-03-17T06:03:56.664Z,-2.62
2023-03-17T06:08:59.886Z,-2.42
2023-03-17T06:14:02.152Z,-2.19
2023-03-17T06:19:04.078Z,-1.98
2023-03-17T06:24:06.936Z,-1.77
2023-03-17T06:29:12.651Z,-1.60
2023-03-17T06:34:14.307Z,-1.46
2023-03-17T06:39:18.124Z,-1.36
2023-03-17T06:44:20.091Z,-1.18
2023-03-17T06:49:22.098Z,-1.02
2023-03-17T06:54:25.513Z,-0.77
2023-03-17T06:59:27.508Z,-0.51
2023-03-17T07:04:29.438Z,-0.22
2023-03-17T07:09:34.359Z,0.12
2023-03-17T07:14:36.913Z,0.43
2023-03-17T07:19:39.007Z,0.74
2023-03-17T07:24:43.236Z,1.00
2023-03-17T07:29:45.029Z,1.28
2023-03-17T07:34:46.975Z,1.54
2023-03-17T07:39:49.074Z,1.84
2023-03-17T07:44:51.470Z,2.08
2023-03-17T07:49:53.528Z,2.29
2023-03-17T07:54:56.117Z,2.47
2023-03-17T07:59:57.830Z,2.65
2023-03-17T08:04:59.558Z,2.83
2023-03-17T08:10:01.371Z,3.01
2023-03-17T08:15:03.561Z,3.17
2023-03-17T08:20:05.949Z,3.36
2023-03-17T08:25:09.743Z,3.57
2023-03-17T08:30:12.777Z,3.82
2023-03-17T08:35:16.043Z,4.03
2023-03-17T08:40:19.676Z,4.27
2023-03-17T08:45:21.352Z,4.57
2023-03-17T08:50:26.754Z,4.81
2023-03-17T08:55:28.460Z,5.07
2023-03-17T09:00:30.517Z,5.36
2023-03-17T09:05:35.671Z,5.60
2023-03-17T09:10:39.443Z,5.77
2023-03-17T09:15:41.175Z,5.98
2023-03-17T09:20:43.319Z,6.19
2023-03-17T09:25:45.214Z,6.46
2023-03-17T09:30:47.052Z,6.79
2023-03-17T09:35:52.235Z,7.12
2023-03-17T09:41:00.476Z,7.46
2023-03-17T09:46:16.350Z,7.78
2023-03-17T09:51:19.720Z,8.11
2023-03-17T09:56:23.420Z,8.40
2023-03-17T10:01:25.530Z,8.63
2023-03-17T10:06:36.398Z,8.85
2023-03-17T10:11:44.239Z,9.16
2023-03-17T10:17:03.647Z,9.49
2023-03-17T10:22:21.957Z,9.83
2023-03-17T10:27:23.725Z,10.15
2023-03-17T10:32:27.575Z,10.44
2023-03-17T10:37:36.519Z,10.79
2023-03-17T10:42:52.970Z,11.09
2023-03-17T10:48:01.862Z,11.38
2023-03-17T10:53:03.491Z,11.58
2023-03-17T10:58:19.859Z,11.71
2023-03-17T11:03:27.970Z,11.85
2023-03-17T11:08:38.353Z,11.82
2023-03-17T11:13:40.897Z,12.14
2023-03-17T11:18:43.139Z,12.37
2023-03-17T11:23:57.760Z,12.46
2023-03-17T11:29:35.982Z,12.63
2023-03-17T11:35:03.663Z,12.59
2023-03-17T11:40:31.976Z,12.73
2023-03-17T11:45:52.530Z,12.85
2023-03-17T11:51:16.110Z,12.93
2023-03-17T11:56:39.058Z,13.06
2023-03-17T12:01:54.866Z,13.11
2023-03-17T12:07:09.194Z,13.08
2023-03-17T12:12:16.037Z,12.98
2023-03-17T12:17:52.040Z,12.87
2023-03-17T12:23:05.535Z,12.78
2023-03-17T12:28:16.113Z,12.68
2023-03-17T12:33:27.812Z,12.62
2023-03-17T12:38:43.750Z,12.51
2023-03-17T12:43:45.591Z,12.42
2023-03-17T12:48:47.314Z,12.33
2023-03-17T12:53:51.214Z,12.36
2023-03-17T12:58:59.595Z,12.39
2023-03-17T13:04:14.481Z,12.34
2023-03-17T13:09:31.885Z,12.34
2023-03-17T13:14:51.669Z,12.39
2023-03-17T13:20:08.466Z,12.43
2023-03-17T13:25:12.978Z,12.49
2023-03-17T13:30:25.881Z,12.63
2023-03-17T13:35:39.337Z,12.77
2023-03-17T13:40:51.774Z,12.82
2023-03-17T13:45:56.087Z,12.75
2023-03-17T13:51:25.704Z,12.69
2023-03-17T13:56:47.392Z,12.68
2023-03-17T14:02:03.481Z,12.72
2023-03-17T14:07:12.827Z,12.73
2023-03-17T14:12:22.998Z,12.81
2023-03-17T14:17:44.558Z,12.87
2023-03-17T14:22:52.817Z,12.89
2023-03-17T14:27:57.762Z,12.88
2023-03-17T14:33:25.031Z,12.94
2023-03-17T14:38:32.384Z,12.91
2023-03-17T14:43:36.296Z,12.94
2023-03-17T14:48:41.368Z,12.91
2023-03-17T14:53:46.410Z,12.76
2023-03-17T14:58:51.615Z,12.66
2023-03-17T15:03:56.659Z,12.60
2023-03-17T15:09:00.472Z,12.54
2023-03-17T15:14:25.928Z,12.54
2023-03-17T15:19:31.072Z,12.54
2023-03-17T15:24:44.077Z,12.44
2023-03-17T15:29:46.713Z,12.28
2023-03-17T15:34:50.321Z,12.11
2023-03-17T15:39:53.773Z,11.93
2023-03-17T15:44:55.476Z,11.78
2023-03-17T15:50:00.112Z,11.61
2023-03-17T15:55:01.928Z,11.40
2023-03-17T16:00:05.601Z,11.17
2023-03-17T16:05:35.332Z,10.90
2023-03-17T16:10:37.412Z,10.60
2023-03-17T16:15:43.055Z,10.31
2023-03-17T16:20:47.868Z,10.03
2023-03-17T16:25:51.696Z,9.74
2023-03-17T16:30:59.605Z,9.48
2023-03-17T16:36:02.022Z,9.18
2023-03-17T16:41:20.395Z,8.88
2023-03-17T16:46:35.400Z,8.59
2023-03-17T16:51:37.340Z,8.31
2023-03-17T16:56:41.179Z,8.01
2023-03-17T17:01:42.917Z,7.70
2023-03-17T17:06:44.696Z,7.44
2023-03-17T17:11:47.474Z,7.17
2023-03-17T17:16:49.387Z,6.92
2023-03-17T17:21:51.329Z,6.73
2023-03-17T17:26:53.015Z,6.54
2023-03-17T17:31:54.868Z,6.37
2023-03-17T17:36:56.841Z,6.20
2023-03-17T17:41:58.862Z,6.06
2023-03-17T17:47:00.705Z,5.94
2023-03-17T17:52:02.489Z,5.89
2023-03-17T17:57:04.870Z,5.80
2023-03-17T18:02:07.251Z,5.70
2023-03-17T18:07:09.282Z,5.63
2023-03-17T18:12:12.746Z,5.59
2023-03-17T18:17:21.779Z,5.54
2023-03-17T18:22:23.509Z,5.49
2023-03-17T18:27:25.243Z,5.37
2023-03-17T18:32:28.825Z,5.15
2023-03-17T18:37:33.724Z,4.94
2023-03-17T18:42:36.973Z,4.69
2023-03-17T18:47:39.186Z,4.44
2023-03-17T18:52:42.588Z,4.21
2023-03-17T18:57:44.907Z,3.97
2023-03-17T19:02:47.289Z,3.74
2023-03-17T19:07:49.186Z,3.57
2023-03-17T19:12:52.126Z,3.47
2023-03-17T19:17:54.353Z,3.39
2023-03-17T19:22:56.882Z,3.32
2023-03-17T19:27:59.278Z,3.20
2023-03-17T19:33:01.421Z,3.10
2023-03-17T19:38:04.165Z,2.99
2023-03-17T19:43:06.778Z,2.88
2023-03-17T19:48:34.020Z,2.75
2023-03-17T19:53:37.478Z,2.65
2023-03-17T19:58:40.594Z,2.62
2023-03-17T20:03:44.959Z,2.59
2023-03-17T20:08:46.696Z,2.57
2023-03-17T20:13:48.463Z,2.59
2023-03-17T20:18:50.264Z,2.55
2023-03-17T20:23:52.746Z,2.54
2023-03-17T20:28:55.634Z,2.49
2023-03-17T20:33:57.855Z,2.45
2023-03-17T20:39:00.019Z,2.39
2023-03-17T20:44:01.908Z,2.36
2023-03-17T20:49:05.648Z,2.33
2023-03-17T20:54:08.747Z,2.27
2023-03-17T20:59:14.562Z,2.22
2023-03-17T21:04:19.603Z,2.15
2023-03-17T21:09:21.323Z,2.03
2023-03-17T21:14:25.455Z,1.93
2023-03-17T21:19:27.772Z,1.93
2023-03-17T21:24:33.676Z,1.81
2023-03-17T21:29:36.245Z,1.66
2023-03-17T21:34:38.302Z,1.50
2023-03-17T21:39:40.062Z,1.37
2023-03-17T21:44:42.250Z,1.20
2023-03-17T21:49:44.452Z,1.02
2023-03-17T21:54:46.168Z,0.85
2023-03-17T21:59:48.104Z,0.70
2023-03-17T22:04:50.132Z,0.55
2023-03-17T22:09:53.735Z,0.45
2023-03-17T22:15:00.145Z,0.36
2023-03-17T22:20:11.754Z,0.28
2023-03-17T22:25:13.622Z,0.16
2023-03-17T22:30:15.835Z,0.05
2023-03-17T22:35:20.872Z,-0.06
2023-03-17T22:40:22.744Z,-0.17
2023-03-17T22:45:31.067Z,-0.22
2023-03-17T22:50:42.652Z,-0.19
2023-03-17T22:56:04.981Z,-0.18
2023-03-17T23:01:07.631Z,-0.18
2023-03-17T23:06:11.443Z,-0.13
2023-03-17T23:11:19.822Z,-0.03
2023-03-17T23:16:22.221Z,0.02
2023-03-17T23:21:34.195Z,0.07
2023-03-17T23:26:37.148Z,0.07
2023-03-17T23:31:39.954Z,0.06
2023-03-17T23:36:42.255Z,0.04
2023-03-17T23:41:45.035Z,0.01
2023-03-17T23:46:46.862Z,0.02
2023-03-17T23:51:49.472Z,0.06
2023-03-17T23:56:51.160Z,0.06
